Terminal Aerodrome Forecast
Issued by NWS

Home | Current Version | Previous Version | Text Only | Print | Product List | Glossary On
Versions: 1 2 3 4 5 6 7 8 9 10 11 12 13 14 15 16 17 18 19 20 21 22 23 24 25 26 27 28 29
000
FTUS41 KBGM 051147 CCA
TAFELM
TAF COR
KELM 051147Z 0512/0612 08003KT P6SM OVC025
      TEMPO 0512/0514 BKN013
     FM051500 04008KT P6SM BKN045
     FM060000 02004KT P6SM BKN040=

USA.gov is the U.S. government's official web portal to all federal, state and local government web resources and services.